Terminal Aerodrome Forecast
Issued by NWS

Home | Current Version | Previous Version | Text Only | Print | Product List | Glossary On
Versions: 1 2 3 4 5 6 7 8 9 10 11 12 13 14
667
FTUS45 KFGZ 201641 AAA
TAFPGA
TAF AMD
KPGA 201641Z 2017/2112 22015G25KT P6SM SCT250
     FM210200 26010G17KT P6SM SCT250=

USA.gov is the U.S. government's official web portal to all federal, state and local government web resources and services.